Time;durP1;ratioP1;P1;durP2;ratioP2;P2;SDS_P1;SDS_P2;PMS_P1;PMS_P2;Temp;Humidity;BMP_temperature;BMP_pressure;BME280_temperature;BME280_humidity;BME280_pressure;Samples;Min_cycle;Max_cycle;Signal;HPM_P1;HPM_P2
2021/06/25 00:01:20;;;;;;;;;8.25;8.25;;;;;27.35;34.61;102032.50;5060812;28;45304;-77
2021/06/25 00:03:45;;;;;;;;;10.00;10.00;;;;;27.20;34.66;102005.00;5061425;28;45532;-77
2021/06/25 00:06:11;;;;;;;;;8.75;8.75;;;;;27.32;34.52;102021.41;5061492;28;45401;-78
2021/06/25 00:08:36;;;;;;;;;10.75;9.75;;;;;26.90;34.66;101961.31;5061529;28;45439;-77
2021/06/25 00:11:02;;;;;;;;;10.00;9.00;;;;;27.20;34.62;101997.81;5062291;28;45505;-77
2021/06/25 00:13:28;;;;;;;;;10.25;10.25;;;;;27.18;34.25;101992.69;5073870;28;45333;-77
2021/06/25 00:15:54;;;;;;;;;8.50;8.50;;;;;27.29;34.77;102009.25;5062517;28;45288;-78
2021/06/25 00:18:20;;;;;;;;;10.50;10.00;;;;;27.13;34.66;101981.72;5060542;28;45350;-77
2021/06/25 00:20:45;;;;;;;;;9.50;9.50;;;;;27.21;34.62;101987.97;5075320;27;45306;-77
2021/06/25 00:23:10;;;;;;;;;11.00;11.00;;;;;27.33;34.70;102017.69;5061393;28;45272;-77
2021/06/25 00:25:36;;;;;;;;;11.00;10.25;;;;;27.21;34.68;101993.31;5060958;28;46195;-77
2021/06/25 00:28:02;;;;;;;;;12.00;9.00;;;;;27.21;34.72;101996.81;5061348;28;45265;-77
2021/06/25 00:30:27;;;;;;;;;11.25;11.25;;;;;27.13;34.78;101984.41;5061487;28;45192;-77
2021/06/25 00:32:52;;;;;;;;;11.75;11.50;;;;;27.21;34.76;101987.97;5061180;28;45226;-78
2021/06/25 00:35:18;;;;;;;;;12.75;11.00;;;;;27.15;34.84;101984.19;5060886;28;45603;-77
2021/06/25 00:37:44;;;;;;;;;9.50;9.25;;;;;27.18;34.62;101986.50;5074152;28;45204;-77
2021/06/25 00:40:10;;;;;;;;;9.00;9.00;;;;;27.29;35.03;102007.41;5061720;28;45283;-78
2021/06/25 00:42:36;;;;;;;;;9.00;8.00;;;;;26.92;35.11;101945.09;5060995;28;45530;-77
2021/06/25 00:45:17;;;;;;;;;10.00;8.00;;;;;27.04;34.34;101958.75;5059054;28;48448;-77
2021/06/25 00:47:45;;;;;;;;;11.50;10.75;;;;;27.13;34.77;101970.22;5059752;28;46199;-77
2021/06/25 00:50:13;;;;;;;;;10.50;9.50;;;;;27.10;34.86;101962.53;5060956;28;45698;-78
2021/06/25 00:52:38;;;;;;;;;10.75;10.25;;;;;27.13;34.37;101962.19;5060803;28;45445;-78
2021/06/25 00:55:04;;;;;;;;;10.25;9.25;;;;;27.26;34.70;101975.72;5060438;28;45332;-77
2021/06/25 00:57:30;;;;;;;;;9.50;9.50;;;;;27.05;34.81;101947.91;5076285;27;45342;-77
2021/06/25 00:59:56;;;;;;;;;12.75;10.00;;;;;27.12;34.62;101953.31;5071116;28;45365;-78
2021/06/25 01:02:21;;;;;;;;;10.50;9.75;;;;;27.13;34.49;101949.69;5060947;28;45251;-77
2021/06/25 01:04:50;;;;;;;;;11.75;11.75;;;;;27.21;34.73;101958.59;5060592;28;46433;-78
2021/06/25 01:07:16;;;;;;;;;10.25;10.00;;;;;27.13;34.88;101947.00;5060446;28;45396;-77
2021/06/25 01:09:42;;;;;;;;;9.50;9.50;;;;;27.16;34.96;101951.16;5059240;28;45359;-78
2021/06/25 01:12:08;;;;;;;;;7.00;7.00;;;;;27.17;35.11;101950.94;5060351;28;45460;-78
2021/06/25 01:14:34;;;;;;;;;10.50;9.50;;;;;27.11;34.79;101932.16;5073117;28;46457;-77
2021/06/25 01:17:00;;;;;;;;;13.75;12.25;;;;;27.25;34.49;101960.69;5060348;28;45324;-78
2021/06/25 01:19:25;;;;;;;;;13.00;12.50;;;;;27.13;34.71;101944.34;5069448;28;45493;-78
2021/06/25 01:21:51;;;;;;;;;9.75;9.75;;;;;27.07;34.81;101921.84;5066282;28;45684;-78
2021/06/25 01:24:16;;;;;;;;;11.75;11.00;;;;;27.04;34.63;101916.03;5060394;28;45335;-78
2021/06/25 01:26:42;;;;;;;;;11.00;11.00;;;;;27.07;34.89;101924.50;5060323;28;45185;-78
2021/06/25 01:29:07;;;;;;;;;10.25;9.25;;;;;27.23;34.53;101951.19;5076162;28;45280;-78
2021/06/25 01:31:33;;;;;;;;;8.50;8.50;;;;;27.11;34.67;101927.66;5059050;28;45985;-78
2021/06/25 01:34:01;;;;;;;;;14.00;9.75;;;;;27.21;35.01;101942.56;5060390;28;45675;-78
2021/06/25 01:36:27;;;;;;;;;10.00;10.00;;;;;27.21;34.94;101940.72;5061832;28;45532;-77
2021/06/25 01:38:52;;;;;;;;;8.50;8.50;;;;;27.07;34.71;101916.50;5070849;28;45391;-78
2021/06/25 01:41:18;;;;;;;;;9.75;8.75;;;;;27.12;34.96;101921.25;5059665;28;45351;-78
2021/06/25 01:43:44;;;;;;;;;9.75;9.00;;;;;27.18;34.69;101930.41;5060218;28;45437;-78
2021/06/25 01:46:12;;;;;;;;;13.25;13.25;;;;;27.11;34.73;101918.78;5060259;28;45351;-78
2021/06/25 01:48:37;;;;;;;;;12.00;12.00;;;;;27.20;34.82;101930.19;5060309;28;45335;-78
2021/06/25 01:51:03;;;;;;;;;9.75;9.75;;;;;27.25;34.85;101933.13;5060183;28;45251;-78
2021/06/25 01:53:29;;;;;;;;;10.00;10.00;;;;;27.26;35.00;101932.97;5058958;28;48547;-78
2021/06/25 01:55:57;;;;;;;;;10.75;9.50;;;;;27.24;34.87;101928.81;5059992;28;45374;-78
2021/06/25 01:58:25;;;;;;;;;9.50;9.25;;;;;27.25;35.12;101927.78;5075697;28;45338;-78
2021/06/25 02:01:10;;;;;;;;;10.00;10.00;;;;;27.27;34.99;101928.44;5068550;28;45315;-77
2021/06/25 02:03:36;;;;;;;;;8.25;7.75;;;;;27.20;34.81;101914.19;5064037;28;46231;-77
2021/06/25 02:06:02;;;;;;;;;9.50;9.00;;;;;27.07;35.06;101894.31;5060877;28;45220;-77
2021/06/25 02:08:27;;;;;;;;;10.00;10.00;;;;;27.14;35.12;101899.75;5061009;28;45313;-77
2021/06/25 02:10:53;;;;;;;;;7.75;7.75;;;;;27.11;34.85;101900.09;5061676;28;45583;-77
2021/06/25 02:13:18;;;;;;;;;10.25;7.50;;;;;27.05;35.00;101893.66;5071445;28;47314;-77
2021/06/25 02:15:43;;;;;;;;;10.75;10.50;;;;;27.15;35.25;101915.59;5062237;28;45165;-78
2021/06/25 02:18:09;;;;;;;;;10.00;10.00;;;;;27.06;34.45;101896.13;5060159;28;45381;-77
2021/06/25 02:20:34;;;;;;;;;8.50;8.50;;;;;27.24;34.72;101918.13;5073916;28;45283;-78
2021/06/25 02:23:00;;;;;;;;;9.75;8.25;;;;;27.19;34.67;101910.69;5059655;28;45880;-77
2021/06/25 02:25:25;;;;;;;;;11.00;10.50;;;;;27.23;34.85;101913.81;5059582;28;45286;-78
2021/06/25 02:27:51;;;;;;;;;9.25;9.25;;;;;27.22;35.03;101904.94;5059875;28;45442;-77
2021/06/25 02:30:17;;;;;;;;;11.00;9.00;;;;;27.21;35.18;101908.66;5059530;28;45345;-77
2021/06/25 02:32:46;;;;;;;;;13.00;10.25;;;;;27.19;34.76;101900.00;5070493;27;45533;-77
2021/06/25 02:35:13;;;;;;;;;11.50;9.75;;;;;27.06;34.86;101879.31;5060840;28;45247;-77
2021/06/25 02:37:39;;;;;;;;;7.00;7.00;;;;;27.24;34.77;101896.78;5072191;28;45243;-78
2021/06/25 02:40:06;;;;;;;;;9.50;9.50;;;;;26.94;34.81;101845.06;5060486;28;45632;-77
2021/06/25 02:42:32;;;;;;;;;8.25;8.25;;;;;27.05;34.97;101856.28;5058017;28;48299;-78
2021/06/25 02:44:57;;;;;;;;;8.50;8.50;;;;;27.03;34.96;101856.47;5058634;28;45295;-77
2021/06/25 02:47:23;;;;;;;;;11.50;11.25;;;;;27.15;34.85;101870.19;5059986;28;45485;-78
2021/06/25 02:49:48;;;;;;;;;10.25;9.25;;;;;27.17;35.03;101870.81;5061659;28;45635;-77
2021/06/25 02:52:14;;;;;;;;;7.50;7.50;;;;;26.87;35.11;101809.47;5063076;28;45442;-78
2021/06/25 02:54:39;;;;;;;;;9.50;9.50;;;;;27.21;35.17;101862.41;5061982;28;45364;-78
2021/06/25 02:57:06;;;;;;;;;13.00;11.25;;;;;27.10;34.83;101847.69;5065183;28;45415;-78
2021/06/25 02:59:31;;;;;;;;;7.50;7.50;;;;;26.80;35.30;101793.41;5076998;27;45549;-78
2021/06/25 03:01:57;;;;;;;;;11.25;10.25;;;;;27.15;35.00;101847.97;5061341;28;47009;-78
2021/06/25 03:04:22;;;;;;;;;11.00;10.50;;;;;27.01;34.95;101831.78;5062617;28;45572;-78
2021/06/25 03:06:47;;;;;;;;;7.75;7.25;;;;;27.02;35.32;101840.63;5062906;28;45311;-78
2021/06/25 03:09:13;;;;;;;;;10.00;10.00;;;;;27.02;34.98;101836.13;5062675;28;45212;-77
2021/06/25 03:11:38;;;;;;;;;8.25;8.25;;;;;27.13;34.94;101852.69;5062556;28;46473;-77
2021/06/25 03:14:04;;;;;;;;;9.00;9.00;;;;;27.06;34.86;101850.72;5074607;28;45243;-78
2021/06/25 03:16:29;;;;;;;;;8.00;8.00;;;;;27.12;35.09;101848.31;5063770;28;45342;-77
2021/06/25 03:18:55;;;;;;;;;8.00;7.00;;;;;26.82;35.46;101802.03;5069526;28;45420;-78
2021/06/25 03:21:20;;;;;;;;;10.00;10.00;;;;;27.20;35.21;101856.25;5070434;28;46043;-77
2021/06/25 03:23:46;;;;;;;;;8.75;7.75;;;;;27.03;35.18;101831.59;5062306;28;45240;-78
2021/06/25 03:26:11;;;;;;;;;11.25;9.25;;;;;27.05;35.41;101829.56;5062514;28;45585;-77
2021/06/25 03:28:36;;;;;;;;;12.25;10.25;;;;;26.93;35.13;101807.91;5062112;28;45467;-77
2021/06/25 03:31:02;;;;;;;;;12.00;11.00;;;;;27.05;35.11;101826.91;5062410;28;45465;-77
2021/06/25 03:33:27;;;;;;;;;8.75;8.50;;;;;27.05;34.97;101822.38;5066096;28;45347;-77
2021/06/25 03:35:53;;;;;;;;;7.25;7.25;;;;;27.11;35.00;101827.97;5070671;27;45400;-77
2021/06/25 03:38:19;;;;;;;;;9.00;8.25;;;;;27.20;35.15;101850.91;5074734;28;45605;-78
2021/06/25 03:40:45;;;;;;;;;8.50;8.50;;;;;27.01;35.17;101813.09;5061849;28;46369;-78
2021/06/25 03:43:10;;;;;;;;;8.00;8.00;;;;;27.19;34.95;101841.25;5061842;28;45418;-77
2021/06/25 03:45:36;;;;;;;;;10.50;9.75;;;;;27.05;35.58;101824.22;5062427;28;45373;-77
2021/06/25 03:48:03;;;;;;;;;8.00;8.00;;;;;27.15;35.20;101838.13;5062039;28;45517;-77
2021/06/25 03:50:28;;;;;;;;;9.00;7.75;;;;;27.10;35.34;101837.84;5062067;28;45240;-78
2021/06/25 03:52:54;;;;;;;;;10.00;9.00;;;;;26.95;35.20;101812.03;5061172;28;45757;-78
2021/06/25 03:55:19;;;;;;;;;11.50;11.50;;;;;27.11;35.01;101828.81;5072973;28;45366;-77
2021/06/25 03:57:45;;;;;;;;;10.75;8.50;;;;;27.05;35.16;101816.22;5072885;28;45215;-78
2021/06/25 04:00:14;;;;;;;;;8.50;8.50;;;;;27.04;34.90;101812.72;5070558;28;45605;-77
2021/06/25 04:02:39;;;;;;;;;8.50;8.50;;;;;27.18;35.13;101832.41;5061864;28;45473;-78
2021/06/25 04:05:09;;;;;;;;;11.75;11.75;;;;;27.13;35.06;101829.47;5061339;28;45326;-78
2021/06/25 04:07:37;;;;;;;;;11.25;9.75;;;;;27.04;35.01;101815.38;5075241;28;45240;-77
2021/06/25 04:10:05;;;;;;;;;10.50;9.50;;;;;27.18;35.11;101835.06;5061251;28;45496;-77
2021/06/25 04:12:31;;;;;;;;;9.75;9.75;;;;;27.14;34.96;101828.44;5065643;28;45310;-78
2021/06/25 04:14:56;;;;;;;;;9.25;9.25;;;;;27.14;34.90;101833.78;5086441;27;45482;-77
2021/06/25 04:17:22;;;;;;;;;9.00;9.00;;;;;27.10;34.89;101823.66;5075095;28;45221;-78
2021/06/25 04:19:47;;;;;;;;;6.75;6.75;;;;;27.13;35.11;101831.31;5073484;28;45621;-78
2021/06/25 04:22:13;;;;;;;;;9.50;9.50;;;;;27.13;34.70;101831.31;5063874;28;45460;-77
2021/06/25 04:24:38;;;;;;;;;8.75;8.00;;;;;27.16;35.17;101826.44;5061431;28;45527;-77
2021/06/25 04:27:04;;;;;;;;;9.50;9.50;;;;;27.01;35.32;101810.41;5061394;28;45271;-78
2021/06/25 04:29:32;;;;;;;;;9.00;9.00;;;;;27.08;34.82;101810.50;5061316;28;46299;-78
2021/06/25 04:31:57;;;;;;;;;9.00;9.00;;;;;26.81;35.13;101768.34;5061173;28;45350;-78
2021/06/25 04:34:23;;;;;;;;;8.50;8.00;;;;;27.00;35.40;101800.78;5060012;28;45417;-78
2021/06/25 04:36:48;;;;;;;;;9.25;9.25;;;;;27.12;35.04;101822.44;5066420;28;45434;-78
2021/06/25 04:39:14;;;;;;;;;10.00;10.00;;;;;27.05;35.24;101802.84;5070143;28;45413;-78
2021/06/25 04:41:39;;;;;;;;;9.00;7.50;;;;;27.14;35.07;101817.75;5073093;28;45358;-78
2021/06/25 04:44:05;;;;;;;;;8.00;8.00;;;;;27.09;35.32;101816.66;5061320;28;45320;-78
2021/06/25 04:46:32;;;;;;;;;8.00;8.00;;;;;26.99;34.92;101800.94;5060971;28;45436;-78
2021/06/25 04:48:58;;;;;;;;;9.00;8.00;;;;;27.16;35.16;101823.75;5061134;28;45268;-78
2021/06/25 04:51:23;;;;;;;;;9.50;9.50;;;;;27.02;35.05;101801.41;5059500;28;45454;-78
2021/06/25 04:53:49;;;;;;;;;8.25;7.00;;;;;26.94;35.16;101786.34;5061116;28;45234;-78
2021/06/25 04:56:14;;;;;;;;;8.75;8.75;;;;;26.92;35.11;101790.22;5060814;28;45241;-77
2021/06/25 04:58:40;;;;;;;;;9.50;9.50;;;;;27.15;35.90;101826.59;5077744;28;46103;-77
2021/06/25 05:01:05;;;;;;;;;10.00;8.75;;;;;27.13;35.08;101823.31;5078154;28;45247;-78
2021/06/25 05:03:30;;;;;;;;;8.25;7.75;;;;;27.05;35.45;101814.38;5060942;28;45357;-78
2021/06/25 05:05:56;;;;;;;;;10.25;9.75;;;;;27.02;35.24;101809.41;5060615;28;45255;-77
2021/06/25 05:08:21;;;;;;;;;8.50;8.50;;;;;26.98;35.28;101807.31;5060838;28;45505;-78
2021/06/25 05:10:47;;;;;;;;;12.75;11.25;;;;;26.94;35.18;101793.50;5060133;28;45488;-77
2021/06/25 05:13:15;;;;;;;;;8.75;8.75;;;;;26.92;35.29;101793.72;5069645;28;45315;-77
2021/06/25 05:15:40;;;;;;;;;9.00;9.00;;;;;27.06;35.37;101810.66;5063759;28;45407;-78
2021/06/25 05:18:17;;;;;;;;;8.75;8.75;;;;;27.15;35.34;101826.59;5060568;28;46185;-78
2021/06/25 05:20:44;;;;;;;;;9.00;8.00;;;;;27.03;35.63;101807.56;5074124;28;45502;-78
2021/06/25 05:23:11;;;;;;;;;9.25;8.25;;;;;26.87;35.12;101789.97;5060705;28;45319;-77
2021/06/25 05:25:37;;;;;;;;;6.75;6.75;;;;;26.98;35.06;101801.97;5058770;28;45470;-77
2021/06/25 05:28:04;;;;;;;;;9.75;8.75;;;;;26.93;35.16;101800.69;5060517;28;46832;-77
2021/06/25 05:30:31;;;;;;;;;12.00;10.75;;;;;27.01;35.48;101804.28;5058897;28;45337;-77
2021/06/25 05:32:57;;;;;;;;;10.00;8.50;;;;;27.03;35.38;101807.56;5063279;28;45322;-77
2021/06/25 05:35:24;;;;;;;;;10.75;9.75;;;;;27.12;35.29;101827.78;5072796;28;45549;-78
2021/06/25 05:37:50;;;;;;;;;8.25;7.00;;;;;27.08;35.24;101821.19;5074255;28;46541;-77
2021/06/25 05:40:15;;;;;;;;;9.50;8.25;;;;;26.83;35.12;101776.97;5060485;28;45262;-77
2021/06/25 05:42:41;;;;;;;;;9.00;9.00;;;;;26.99;35.41;101807.13;5060692;28;45229;-78
2021/06/25 05:45:07;;;;;;;;;10.25;10.25;;;;;26.95;35.19;101797.84;5060289;28;45489;-77
2021/06/25 05:47:32;;;;;;;;;8.00;8.00;;;;;26.78;35.28;101768.72;5060118;28;46301;-77
2021/06/25 05:49:58;;;;;;;;;8.75;8.75;;;;;27.03;35.45;101807.56;5060232;28;45244;-77
2021/06/25 05:52:23;;;;;;;;;9.00;8.25;;;;;27.05;35.24;101808.19;5060411;28;45257;-77
2021/06/25 05:54:49;;;;;;;;;6.75;6.75;;;;;26.84;35.53;101772.47;5075455;27;45406;-77
2021/06/25 05:57:14;;;;;;;;;8.50;8.50;;;;;26.92;35.22;101787.53;5062754;28;47102;-78
2021/06/25 05:59:39;;;;;;;;;10.00;10.00;;;;;26.78;35.08;101770.59;5073703;27;45310;-77
2021/06/25 06:02:05;;;;;;;;;9.50;9.50;;;;;27.07;35.75;101820.34;5075851;28;45868;-78
2021/06/25 06:04:30;;;;;;;;;11.00;9.75;;;;;27.03;35.74;101818.25;5058455;28;45579;-77
2021/06/25 06:06:56;;;;;;;;;8.00;7.50;;;;;27.12;35.25;101826.94;5059829;28;46589;-77
2021/06/25 06:09:21;;;;;;;;;8.75;8.50;;;;;27.11;35.24;101825.31;5059893;28;45368;-77
2021/06/25 06:11:47;;;;;;;;;7.50;7.00;;;;;26.96;35.27;101799.47;5066942;28;45254;-77
2021/06/25 06:14:13;;;;;;;;;9.75;8.00;;;;;27.02;35.02;101805.91;5071962;28;45269;-74
2021/06/25 06:16:38;;;;;;;;;9.00;8.75;;;;;27.07;35.31;101819.50;5059292;28;45521;-77
2021/06/25 06:19:05;;;;;;;;;7.00;7.00;;;;;26.89;35.46;101790.59;5059517;28;45221;-79
2021/06/25 06:31:10;;;;;;;;;9.00;9.00;;;;;27.02;35.14;101811.25;5060509;28;45289;-77
2021/06/25 06:32:34;;;;;;;;;5.25;5.25;;;;;27.03;35.38;101810.25;5072479;28;45492;-80
2021/06/25 06:35:00;;;;;;;;;8.00;7.25;;;;;26.98;35.53;101805.47;5066679;28;45414;-75
2021/06/25 06:37:25;;;;;;;;;9.00;9.00;;;;;26.97;35.15;101798.47;5073216;28;46095;-81
2021/06/25 06:39:50;;;;;;;;;7.00;7.00;;;;;27.07;35.79;101820.34;5066404;28;45326;-76
2021/06/25 06:42:16;;;;;;;;;12.50;10.75;;;;;26.87;35.80;101782.78;5067190;28;45350;-78
2021/06/25 06:44:41;;;;;;;;;8.75;8.75;;;;;26.76;35.74;101764.59;5076610;28;45461;-77
2021/06/25 06:47:07;;;;;;;;;8.00;8.00;;;;;27.05;36.13;101806.38;5072304;27;45257;-77
2021/06/25 06:49:32;;;;;;;;;7.00;6.25;;;;;27.06;35.82;101813.34;5080748;28;45363;-75
2021/06/25 06:51:59;;;;;;;;;8.50;7.25;;;;;26.76;35.96;101754.75;5083636;28;45253;-75
2021/06/25 06:54:25;;;;;;;;;9.00;6.50;;;;;26.94;36.08;101793.50;5065621;28;45164;-75
2021/06/25 06:56:50;;;;;;;;;8.00;7.25;;;;;27.02;36.04;101809.41;5062048;28;45311;-75
2021/06/25 06:59:15;;;;;;;;;9.00;7.00;;;;;27.03;36.73;101813.75;5078214;27;45310;-77
2021/06/25 07:01:41;;;;;;;;;7.00;7.00;;;;;27.09;36.20;101820.16;5062787;28;45669;-77
2021/06/25 07:04:07;;;;;;;;;7.50;7.25;;;;;26.98;36.55;101799.31;5060463;28;45293;-77
2021/06/25 07:06:32;;;;;;;;;9.25;8.00;;;;;27.10;36.69;101820.97;5061956;28;46927;-77
2021/06/25 07:08:58;;;;;;;;;8.75;7.25;;;;;27.12;36.33;101825.09;5077950;28;45335;-77
2021/06/25 07:11:23;;;;;;;;;6.75;6.75;;;;;27.07;36.23;101808.84;5062717;28;45536;-77
2021/06/25 07:13:49;;;;;;;;;8.00;6.75;;;;;27.04;36.02;101802.03;5076627;28;45318;-77
2021/06/25 07:16:14;;;;;;;;;7.00;7.00;;;;;27.06;36.43;101802.66;5074248;28;46619;-77
2021/06/25 07:18:41;;;;;;;;;7.00;6.00;;;;;27.10;36.69;101803.13;5063822;28;45308;-76
2021/06/25 07:21:06;;;;;;;;;8.25;8.00;;;;;27.17;36.39;101814.72;5074065;28;45319;-76
2021/06/25 07:23:32;;;;;;;;;8.75;8.50;;;;;27.17;36.58;101816.53;5069576;28;45509;-77
2021/06/25 07:25:57;;;;;;;;;9.50;8.50;;;;;27.12;36.28;101805.59;5065296;28;46744;-77
2021/06/25 07:28:23;;;;;;;;;7.25;7.25;;;;;27.02;36.43;101785.38;5060906;28;45757;-77
2021/06/25 07:30:48;;;;;;;;;9.50;7.00;;;;;26.96;36.07;101775.44;5062585;28;45319;-77
2021/06/25 07:33:14;;;;;;;;;8.00;8.00;;;;;27.05;36.23;101794.84;5063698;28;45482;-77
2021/06/25 07:35:39;;;;;;;;;7.00;6.50;;;;;27.10;36.73;101807.63;5073440;28;46738;-78
2021/06/25 07:38:05;;;;;;;;;7.00;7.00;;;;;27.14;36.55;101812.41;5075737;28;45738;-77
2021/06/25 07:40:30;;;;;;;;;7.75;6.75;;;;;27.02;36.62;101790.72;5077560;28;45239;-77
2021/06/25 07:42:56;;;;;;;;;8.50;7.00;;;;;27.16;36.21;101825.59;5066346;28;45381;-77
2021/06/25 07:45:21;;;;;;;;;9.25;8.00;;;;;26.99;36.55;101791.09;5060567;28;48347;-77
2021/06/25 07:47:47;;;;;;;;;8.75;8.75;;;;;27.02;36.53;101792.56;5062978;28;45496;-77
2021/06/25 07:50:15;;;;;;;;;8.75;7.75;;;;;27.01;36.68;101791.72;5062107;28;45327;-77
2021/06/25 07:52:42;;;;;;;;;8.50;8.00;;;;;26.95;36.43;101779.97;5062069;28;45366;-77
2021/06/25 07:55:08;;;;;;;;;7.00;7.00;;;;;26.95;36.21;101779.16;5061711;28;46319;-77
2021/06/25 07:57:34;;;;;;;;;8.25;8.25;;;;;27.08;36.89;101799.81;5067145;28;45304;-78
2021/06/25 07:59:59;;;;;;;;;8.25;7.25;;;;;27.14;36.29;101808.94;5077574;28;45406;-77
2021/06/25 08:02:25;;;;;;;;;9.25;8.00;;;;;27.15;36.63;101813.25;5075505;28;46687;-77
2021/06/25 08:04:50;;;;;;;;;6.75;6.25;;;;;27.15;36.77;101815.91;5061596;28;45239;-77
2021/06/25 08:07:17;;;;;;;;;5.50;5.50;;;;;27.13;36.48;101804.59;5061757;28;45299;-77
2021/06/25 08:09:43;;;;;;;;;8.00;6.25;;;;;27.05;36.52;101790.34;5061748;28;45384;-77
2021/06/25 08:12:11;;;;;;;;;6.50;6.00;;;;;27.03;36.61;101795.06;5062822;28;45345;-77
2021/06/25 08:14:37;;;;;;;;;8.25;8.00;;;;;27.08;36.58;101802.47;5073540;28;45236;-77
2021/06/25 08:17:04;;;;;;;;;9.00;7.00;;;;;27.11;36.91;101795.94;5061677;28;45203;-77
2021/06/25 08:19:30;;;;;;;;;6.50;5.75;;;;;27.06;36.91;101783.97;5070615;28;45306;-76
2021/06/25 08:21:56;;;;;;;;;7.75;7.75;;;;;26.81;36.83;101744.31;5068488;28;45331;-77
2021/06/25 08:24:21;;;;;;;;;8.25;7.00;;;;;26.99;36.99;101769.72;5065613;28;46370;-77
2021/06/25 08:26:46;;;;;;;;;6.00;6.00;;;;;26.95;36.88;101763.13;5063203;28;45333;-77
2021/06/25 08:29:12;;;;;;;;;5.75;5.75;;;;;27.11;36.76;101788.75;5061751;28;45394;-77
2021/06/25 08:31:37;;;;;;;;;8.00;6.25;;;;;26.94;36.79;101758.78;5060128;28;45936;-77
2021/06/25 08:34:04;;;;;;;;;7.00;5.75;;;;;27.09;37.06;101779.28;5075092;28;45680;-77
2021/06/25 08:36:31;;;;;;;;;5.75;5.75;;;;;27.00;37.12;101759.88;5068568;28;45338;-77
2021/06/25 08:38:56;;;;;;;;;6.50;6.50;;;;;27.18;36.86;101789.66;5072259;28;45388;-77
2021/06/25 08:41:21;;;;;;;;;7.00;7.00;;;;;27.13;36.96;101778.72;5061144;28;45576;-77
2021/06/25 08:43:47;;;;;;;;;8.00;7.50;;;;;27.13;36.79;101770.72;5061302;28;45247;-77
2021/06/25 08:46:12;;;;;;;;;5.50;5.50;;;;;27.13;36.65;101775.22;5059846;28;45206;-78
2021/06/25 08:48:38;;;;;;;;;7.75;6.50;;;;;27.21;37.14;101784.94;5071582;27;45491;-77
2021/06/25 08:51:06;;;;;;;;;7.75;7.50;;;;;27.16;37.29;101769.50;5074291;28;45428;-77
2021/06/25 08:53:32;;;;;;;;;6.25;6.25;;;;;27.21;36.77;101776.94;5071616;28;46414;-77
2021/06/25 08:55:58;;;;;;;;;7.00;6.00;;;;;27.24;37.11;101773.88;5060593;28;45413;-77
2021/06/25 08:58:23;;;;;;;;;10.00;8.50;;;;;27.22;36.84;101767.91;5074208;28;45480;-77
2021/06/25 09:00:50;;;;;;;;;7.25;7.25;;;;;27.11;36.59;101748.69;5067456;28;45528;-77
2021/06/25 09:03:20;;;;;;;;;6.75;6.75;;;;;27.23;36.85;101774.88;5071328;28;45320;-77
2021/06/25 09:05:46;;;;;;;;;6.00;6.00;;;;;27.24;36.77;101774.72;5058857;28;45356;-77
2021/06/25 09:08:28;;;;;;;;;8.50;6.00;;;;;27.27;37.16;101773.50;5060663;28;45387;-77
2021/06/25 09:10:59;;;;;;;;;6.50;6.50;;;;;27.21;37.22;101766.25;5062011;28;45553;-77
2021/06/25 09:13:36;;;;;;;;;8.00;5.50;;;;;27.15;37.23;101754.47;5070539;28;46442;-77
2021/06/25 09:16:19;;;;;;;;;7.00;7.00;;;;;27.19;37.04;101766.44;5067039;28;45331;-77
2021/06/25 09:19:12;;;;;;;;;4.00;4.00;;;;;27.27;37.21;101784.19;5081761;27;45330;-77
2021/06/25 09:21:44;;;;;;;;;8.00;5.00;;;;;27.25;37.05;101775.50;5067552;28;45362;-77
2021/06/25 09:24:20;;;;;;;;;8.00;8.00;;;;;27.27;37.05;101782.31;5062738;28;47098;-77
2021/06/25 09:26:47;;;;;;;;;8.00;7.00;;;;;27.13;36.81;101751.19;5072055;28;45505;-77
2021/06/25 09:29:16;;;;;;;;;7.50;7.50;;;;;27.18;37.08;101762.13;5060624;28;45292;-77
2021/06/25 09:31:42;;;;;;;;;7.50;6.00;;;;;27.09;37.23;101745.34;5060245;28;45337;-77
2021/06/25 09:34:10;;;;;;;;;7.75;7.25;;;;;27.24;37.37;101773.88;5069077;28;45231;-77
2021/06/25 09:36:38;;;;;;;;;8.75;8.25;;;;;27.25;37.07;101773.66;5058775;28;46112;-77
2021/06/25 09:39:08;;;;;;;;;6.75;6.75;;;;;27.23;37.34;101766.88;5070885;28;45325;-77
2021/06/25 09:41:35;;;;;;;;;7.75;7.75;;;;;27.26;37.61;101774.50;5082389;27;45529;-77
2021/06/25 09:44:03;;;;;;;;;5.25;5.25;;;;;27.28;37.18;101778.63;5068954;28;46352;-77
2021/06/25 09:46:48;;;;;;;;;6.75;6.50;;;;;27.31;36.68;101776.59;5058381;28;45584;-77
2021/06/25 09:49:15;;;;;;;;;7.25;7.25;;;;;27.14;37.17;101745.63;5059888;28;45257;-76
2021/06/25 09:51:53;;;;;;;;;7.25;7.25;;;;;27.29;37.20;101774.13;5058635;28;45370;-76
2021/06/25 09:54:19;;;;;;;;;6.00;6.00;;;;;27.29;37.48;101772.28;5059734;28;45471;-76
2021/06/25 09:59:28;;;;;;;;;8.75;7.00;;;;;27.34;37.23;101774.38;5076253;28;45330;-76
2021/06/25 10:01:54;;;;;;;;;7.00;6.50;;;;;27.31;37.26;101764.06;5058563;28;45305;-77
2021/06/25 10:04:37;;;;;;;;;5.00;5.00;;;;;27.30;37.31;101759.72;5059953;28;45221;-77
2021/06/25 10:07:31;;;;;;;;;8.00;6.25;;;;;27.32;37.25;101756.88;5059478;28;45466;-77
2021/06/25 10:10:01;;;;;;;;;7.50;5.50;;;;;27.37;37.21;101770.47;5058985;28;45410;-77
2021/06/25 10:12:26;;;;;;;;;6.25;6.25;;;;;27.35;37.11;101765.31;5062869;28;45579;-77
2021/06/25 10:14:54;;;;;;;;;6.00;6.00;;;;;27.39;37.27;101771.94;5068062;28;46917;-77
2021/06/25 10:17:25;;;;;;;;;8.00;6.00;;;;;27.28;37.20;101756.44;5058933;28;45425;-77
2021/06/25 10:19:53;;;;;;;;;8.25;8.00;;;;;27.37;37.50;101757.13;5060273;28;45640;-77
2021/06/25 10:22:25;;;;;;;;;7.25;7.25;;;;;27.29;37.25;101750.09;5058426;28;45366;-81
2021/06/25 10:24:52;;;;;;;;;8.00;5.50;;;;;27.32;37.11;101756.88;5059504;28;46193;-82
2021/06/25 10:27:20;;;;;;;;;6.00;5.75;;;;;27.38;37.48;101766.78;5060905;28;45484;-77
2021/06/25 10:29:47;;;;;;;;;8.00;7.00;;;;;27.26;37.62;101748.63;5067826;27;45410;-74
2021/06/25 10:32:15;;;;;;;;;6.75;6.25;;;;;27.39;37.57;101769.28;5063204;27;45253;-75
2021/06/25 10:34:43;;;;;;;;;6.75;6.25;;;;;27.42;37.59;101770.72;5063641;27;46006;-75
2021/06/25 10:37:09;;;;;;;;;5.00;5.00;;;;;27.41;37.38;101761.03;5060212;28;45557;-78
2021/06/25 10:39:36;;;;;;;;;9.00;7.00;;;;;27.41;37.36;101761.03;5062765;28;45704;-76
2021/06/25 10:42:10;;;;;;;;;6.75;5.00;;;;;27.49;36.92;101773.44;5059706;28;45551;-79
2021/06/25 10:44:43;;;;;;;;;7.50;7.00;;;;;27.35;37.51;101748.47;5064416;28;46645;-78
2021/06/25 10:47:12;;;;;;;;;5.00;5.00;;;;;27.43;37.05;101766.22;5058979;27;47467;-78
2021/06/25 10:50:05;;;;;;;;;6.00;6.00;;;;;27.48;37.51;101761.91;5062075;27;45410;-72
2021/06/25 10:52:32;;;;;;;;;7.00;7.00;;;;;27.51;37.70;101769.53;5061921;28;45814;-75
2021/06/25 10:55:12;;;;;;;;;10.00;9.50;;;;;27.44;37.25;101760.66;5069855;28;45297;-74
2021/06/25 10:57:57;;;;;;;;;12.25;7.00;;;;;27.35;37.36;101780.53;5072050;27;45576;-72
2021/06/25 11:00:54;;;;;;;;;9.00;8.25;;;;;27.04;37.04;101750.47;5068506;28;45454;-74
2021/06/25 11:03:38;;;;;;;;;6.25;5.50;;;;;26.98;37.27;101768.09;5056720;27;45480;-77
2021/06/25 11:06:06;;;;;;;;;5.00;5.00;;;;;26.56;38.24;101723.34;5065545;27;45508;-77
2021/06/25 11:08:31;;;;;;;;;7.00;4.00;;;;;26.69;37.70;101749.34;5065228;27;45695;-71
2021/06/25 11:10:59;;;;;;;;;6.50;5.00;;;;;26.48;38.15;101712.78;5069543;27;45387;-81
2021/06/25 11:13:29;;;;;;;;;4.75;4.75;;;;;26.60;38.17;101726.44;5068523;27;45314;-80
2021/06/25 11:16:04;;;;;;;;;6.00;6.00;;;;;26.87;38.02;101758.75;5070686;27;47696;-81
2021/06/25 11:18:31;;;;;;;;;5.00;5.00;;;;;26.70;37.92;101734.16;5067476;28;45529;-83
2021/06/25 11:21:08;;;;;;;;;6.50;5.50;;;;;26.77;38.05;101728.88;5077185;28;45447;-82
2021/06/25 11:23:42;;;;;;;;;3.75;3.75;;;;;27.13;37.76;101780.56;5071228;28;45534;-84
2021/06/25 11:26:13;;;;;;;;;6.25;5.50;;;;;27.20;37.49;101777.94;5071147;28;45511;-81
2021/06/25 11:28:41;;;;;;;;;4.00;4.00;;;;;27.09;37.41;101755.25;5071543;28;45714;-84
2021/06/25 11:31:18;;;;;;;;;4.50;4.50;;;;;27.26;37.83;101777.19;5065513;28;45358;-75
2021/06/25 11:33:50;;;;;;;;;6.50;5.00;;;;;27.29;37.90;101779.47;5068280;28;45650;-71